Time;durP1;ratioP1;P1;durP2;ratioP2;P2;SDS_P1;SDS_P2;PMS_P1;PMS_P2;Temp;Humidity;BMP_temperature;BMP_pressure;BME280_temperature;BME280_humidity;BME280_pressure;Samples;Min_cycle;Max_cycle;Signal;HPM_P1;HPM_P2
2021/12/01 00:01:37;;;;;;;0.60;0.60;;;6.00;96.60;;;;;;5071417;28;20082;-63
2021/12/01 00:04:03;;;;;;;1.05;0.50;;;6.00;96.70;;;;;;5072153;28;20020;-65
2021/12/01 00:06:28;;;;;;;1.05;0.60;;;6.10;96.60;;;;;;5075074;28;20021;-63
2021/12/01 00:08:54;;;;;;;0.50;0.40;;;6.10;96.50;;;;;;5074690;28;20016;-64
2021/12/01 00:11:20;;;;;;;0.65;0.40;;;6.10;96.70;;;;;;5074395;28;20021;-63
2021/12/01 00:13:46;;;;;;;0.47;0.47;;;6.10;96.70;;;;;;5075204;28;20496;-63
2021/12/01 00:16:11;;;;;;;0.60;0.55;;;6.20;96.70;;;;;;5075476;28;20050;-63
2021/12/01 00:18:37;;;;;;;0.75;0.50;;;6.20;96.80;;;;;;5074841;28;20056;-63
2021/12/01 00:21:03;;;;;;;0.40;0.40;;;6.20;96.80;;;;;;5074624;28;20020;-63
2021/12/01 00:23:29;;;;;;;0.35;0.35;;;6.20;96.90;;;;;;5074656;28;20032;-63
2021/12/01 00:25:55;;;;;;;0.60;0.52;;;6.20;96.90;;;;;;5077112;28;20453;-63
2021/12/01 00:28:20;;;;;;;0.50;0.50;;;6.30;97.00;;;;;;5074969;28;20024;-63
2021/12/01 00:30:46;;;;;;;0.65;0.63;;;6.30;97.10;;;;;;5074862;28;20028;-62
2021/12/01 00:33:14;;;;;;;0.43;0.43;;;6.30;97.20;;;;;;5074167;28;20115;-62
2021/12/01 00:35:39;;;;;;;0.50;0.50;;;6.30;97.30;;;;;;5074899;28;20029;-62
2021/12/01 00:38:06;;;;;;;0.40;0.40;;;6.30;97.40;;;;;;5074303;28;20021;-63
2021/12/01 00:40:33;;;;;;;0.50;0.50;;;6.30;97.50;;;;;;5074598;28;20020;-62
2021/12/01 00:42:59;;;;;;;1.75;0.47;;;6.30;97.60;;;;;;5074191;28;20040;-63
2021/12/01 00:45:27;;;;;;;0.50;0.50;;;6.40;97.60;;;;;;5074663;28;20037;-63
2021/12/01 00:47:53;;;;;;;1.55;0.40;;;6.40;97.60;;;;;;5074126;28;20021;-62
2021/12/01 00:50:27;;;;;;;1.55;0.30;;;6.50;97.70;;;;;;5074603;28;20480;-63
2021/12/01 00:52:56;;;;;;;2.38;0.47;;;6.50;97.90;;;;;;5073656;28;20470;-63
2021/12/01 00:55:22;;;;;;;0.57;0.40;;;6.50;98.10;;;;;;5074544;28;20111;-63
2021/12/01 00:57:50;;;;;;;0.88;0.60;;;6.50;98.20;;;;;;5074562;28;20039;-63
2021/12/01 01:00:17;;;;;;;0.45;0.38;;;6.60;98.20;;;;;;5074298;28;20029;-63
2021/12/01 01:02:43;;;;;;;0.40;0.35;;;6.50;98.40;;;;;;5074466;28;20153;-64
2021/12/01 01:05:10;;;;;;;0.20;0.20;;;6.60;98.50;;;;;;5073459;28;20025;-63
2021/12/01 01:07:36;;;;;;;1.15;0.50;;;6.60;98.50;;;;;;5074400;28;20116;-62
2021/12/01 01:10:15;;;;;;;0.20;0.20;;;6.60;98.40;;;;;;5073652;28;20369;-62
2021/12/01 01:18:10;;;;;;;0.55;0.45;;;6.70;98.40;;;;;;5073207;28;20166;-62
2021/12/01 01:20:36;;;;;;;0.47;0.30;;;6.70;98.60;;;;;;5074030;28;20461;-62
2021/12/01 01:23:02;;;;;;;0.70;0.40;;;6.70;98.70;;;;;;5073031;28;20081;-62
2021/12/01 01:25:29;;;;;;;0.32;0.30;;;6.70;98.80;;;;;;5073856;28;20462;-64
2021/12/01 01:27:55;;;;;;;0.30;0.30;;;6.70;98.90;;;;;;5073536;28;20025;-64
2021/12/01 01:30:21;;;;;;;0.30;0.30;;;6.70;98.90;;;;;;5073812;28;20028;-63
2021/12/01 01:32:47;;;;;;;0.30;0.30;;;6.70;99.00;;;;;;5073681;28;20052;-63
2021/12/01 01:35:13;;;;;;;0.40;0.35;;;6.70;99.10;;;;;;5085062;28;20129;-63
2021/12/01 01:37:42;;;;;;;0.93;0.20;;;6.70;99.00;;;;;;5094021;28;20024;-62
2021/12/01 01:40:09;;;;;;;0.10;0.10;;;6.80;99.10;;;;;;5093114;28;20059;-63
2021/12/01 01:42:35;;;;;;;0.30;0.30;;;6.80;99.30;;;;;;5093769;28;20032;-62
2021/12/01 01:45:01;;;;;;;0.30;0.30;;;6.80;99.30;;;;;;5092729;28;20403;-63
2021/12/01 01:47:26;;;;;;;0.30;0.30;;;6.80;99.50;;;;;;5093456;28;20118;-63
2021/12/01 01:49:59;;;;;;;0.40;0.40;;;6.80;99.60;;;;;;5093590;28;20020;-62
2021/12/01 01:52:26;;;;;;;0.75;0.40;;;6.80;99.70;;;;;;5093510;28;20039;-62
2021/12/01 01:54:52;;;;;;;0.50;0.38;;;6.80;99.90;;;;;;5093638;28;20032;-62
2021/12/01 01:57:18;;;;;;;0.70;0.43;;;6.80;99.90;;;;;;5092634;28;20028;-62
2021/12/01 01:59:44;;;;;;;0.30;0.30;;;6.90;99.90;;;;;;5093886;28;20047;-62
2021/12/01 02:02:09;;;;;;;0.30;0.30;;;6.90;99.90;;;;;;5092500;28;20103;-63
2021/12/01 02:04:35;;;;;;;0.30;0.30;;;6.90;99.90;;;;;;5093475;28;20039;-63
2021/12/01 02:07:03;;;;;;;0.43;0.40;;;6.90;99.90;;;;;;5092766;28;20445;-63
2021/12/01 02:09:29;;;;;;;0.20;0.20;;;6.90;99.90;;;;;;5093508;28;20098;-63
2021/12/01 02:11:59;;;;;;;0.90;0.38;;;6.90;99.90;;;;;;5093259;28;20020;-63
2021/12/01 02:14:26;;;;;;;0.50;0.30;;;6.90;99.90;;;;;;5091684;28;20069;-64
2021/12/01 02:16:53;;;;;;;0.22;0.22;;;6.90;99.90;;;;;;5093305;28;20036;-62
2021/12/01 02:19:19;;;;;;;0.28;0.28;;;6.90;99.90;;;;;;5092551;28;20103;-62
2021/12/01 02:21:45;;;;;;;0.20;0.20;;;6.90;99.90;;;;;;5092984;28;20154;-62
2021/12/01 02:24:14;;;;;;;0.25;0.25;;;6.90;99.90;;;;;;5089214;28;20036;-63
2021/12/01 02:26:42;;;;;;;0.20;0.20;;;6.90;99.90;;;;;;5092681;28;20024;-63
2021/12/01 02:29:10;;;;;;;0.30;0.30;;;6.90;99.90;;;;;;5092244;28;20028;-63
2021/12/01 02:31:37;;;;;;;0.30;0.30;;;6.90;99.90;;;;;;5092839;28;20020;-63
2021/12/01 02:34:09;;;;;;;0.38;0.30;;;6.90;99.90;;;;;;5092192;28;20028;-63
2021/12/01 02:36:36;;;;;;;0.38;0.32;;;6.90;99.90;;;;;;5092688;28;20028;-63
2021/12/01 02:39:08;;;;;;;0.20;0.20;;;6.90;99.90;;;;;;5092173;28;20024;-63
2021/12/01 02:41:35;;;;;;;0.30;0.30;;;6.90;99.90;;;;;;5092721;28;20024;-63
2021/12/01 02:44:02;;;;;;;0.30;0.30;;;6.90;99.90;;;;;;5092008;28;20060;-63
2021/12/01 02:46:28;;;;;;;0.40;0.30;;;6.90;99.90;;;;;;5092824;28;20131;-63
2021/12/01 02:48:56;;;;;;;0.40;0.40;;;6.90;99.90;;;;;;5092536;28;20055;-63
2021/12/01 02:51:26;;;;;;;0.43;0.40;;;6.90;99.90;;;;;;5091876;28;20031;-63
2021/12/01 02:53:52;;;;;;;0.35;0.35;;;6.90;99.90;;;;;;5092400;28;20036;-62
2021/12/01 02:56:24;;;;;;;0.55;0.30;;;6.90;99.90;;;;;;5091513;28;20391;-63
2021/12/01 02:58:50;;;;;;;;;;;6.90;99.90;;;;;;5092973;28;20095;-62
2021/12/01 03:01:20;;;;;;;0.52;0.30;;;6.90;99.90;;;;;;5091788;28;19933;-61
2021/12/01 03:03:47;;;;;;;0.30;0.30;;;6.90;99.90;;;;;;5092407;28;20028;-61
2021/12/01 03:06:13;;;;;;;0.20;0.20;;;6.90;99.90;;;;;;5091730;28;20024;-62
2021/12/01 03:08:48;;;;;;;0.32;0.32;;;6.90;99.90;;;;;;5092201;28;20024;-62
2021/12/01 03:11:15;;;;;;;0.40;0.40;;;6.90;99.90;;;;;;5091721;28;20040;-62
2021/12/01 03:13:41;;;;;;;0.17;0.17;;;6.90;99.90;;;;;;5091803;28;20054;-62
2021/12/01 03:16:07;;;;;;;2.40;0.40;;;6.90;99.90;;;;;;5091261;28;20024;-62
2021/12/01 03:18:33;;;;;;;0.75;0.60;;;6.90;99.90;;;;;;5092272;28;20028;-62
2021/12/01 03:21:00;;;;;;;0.60;0.60;;;7.00;99.90;;;;;;5092184;28;20027;-62
2021/12/01 03:23:27;;;;;;;0.40;0.40;;;6.90;99.90;;;;;;5091541;28;20032;-62
2021/12/01 03:25:53;;;;;;;0.38;0.38;;;6.90;99.90;;;;;;5090779;28;20461;-62
2021/12/01 03:28:19;;;;;;;0.52;0.50;;;6.90;99.90;;;;;;5081769;28;20051;-62
2021/12/01 03:30:46;;;;;;;1.25;0.30;;;6.90;99.90;;;;;;5080592;28;20492;-62
2021/12/01 03:33:14;;;;;;;0.50;0.45;;;6.90;99.90;;;;;;5080773;28;20067;-63
2021/12/01 03:35:43;;;;;;;0.77;0.52;;;6.90;99.90;;;;;;5091329;28;20040;-63
2021/12/01 03:38:09;;;;;;;0.50;0.50;;;6.90;99.90;;;;;;5073057;28;20051;-62
2021/12/01 03:40:35;;;;;;;0.40;0.40;;;6.80;99.90;;;;;;5078887;28;20073;-63
2021/12/01 03:43:01;;;;;;;0.50;0.50;;;6.80;99.90;;;;;;5095616;28;20477;-62
2021/12/01 03:45:27;;;;;;;0.52;0.40;;;6.80;99.90;;;;;;5095230;28;20132;-62
2021/12/01 03:47:53;;;;;;;0.43;0.43;;;6.80;99.90;;;;;;5095849;28;20031;-62
2021/12/01 03:50:19;;;;;;;0.40;0.40;;;6.80;99.90;;;;;;5095079;28;20186;-63
2021/12/01 03:52:45;;;;;;;0.43;0.43;;;6.80;99.90;;;;;;5095768;28;20035;-62
2021/12/01 03:55:11;;;;;;;0.40;0.40;;;6.80;99.90;;;;;;5095205;28;20028;-62
2021/12/01 03:57:38;;;;;;;1.23;0.40;;;6.80;99.90;;;;;;5095433;28;20142;-62
2021/12/01 04:00:08;;;;;;;0.60;0.50;;;6.80;99.90;;;;;;5095259;28;20139;-63
2021/12/01 04:02:33;;;;;;;0.35;0.30;;;6.80;99.90;;;;;;5095681;28;20502;-62
2021/12/01 04:04:59;;;;;;;0.70;0.40;;;6.80;99.90;;;;;;5095630;28;20055;-63
2021/12/01 04:07:25;;;;;;;0.60;0.50;;;6.80;99.90;;;;;;5095183;28;20082;-62
2021/12/01 04:09:51;;;;;;;0.50;0.43;;;6.80;99.90;;;;;;5095505;28;20107;-62
2021/12/01 04:12:17;;;;;;;0.63;0.55;;;6.80;99.90;;;;;;5094452;28;20028;-62
2021/12/01 04:14:44;;;;;;;0.60;0.60;;;6.80;99.90;;;;;;5095359;28;20114;-62
2021/12/01 04:17:09;;;;;;;0.45;0.40;;;6.80;99.90;;;;;;5092801;28;20023;-62
2021/12/01 04:19:35;;;;;;;0.40;0.40;;;6.80;99.90;;;;;;5092822;28;20028;-62
2021/12/01 04:22:01;;;;;;;0.77;0.50;;;6.80;99.90;;;;;;5095205;28;20464;-62
2021/12/01 04:24:27;;;;;;;0.50;0.40;;;6.80;99.90;;;;;;5094425;28;20116;-63
2021/12/01 04:26:53;;;;;;;0.70;0.38;;;6.90;99.90;;;;;;5095495;28;20110;-63
2021/12/01 04:29:18;;;;;;;0.50;0.50;;;6.90;99.90;;;;;;5094430;28;20032;-63
2021/12/01 04:31:44;;;;;;;0.93;0.50;;;6.90;99.90;;;;;;5095202;28;20476;-62
2021/12/01 04:34:10;;;;;;;0.50;0.50;;;7.00;99.90;;;;;;5094214;28;20039;-62
2021/12/01 04:36:39;;;;;;;2.42;0.50;;;7.00;99.90;;;;;;5095062;28;20036;-62
2021/12/01 04:39:08;;;;;;;0.65;0.60;;;7.00;99.90;;;;;;5094813;28;20048;-62
2021/12/01 04:41:40;;;;;;;0.60;0.60;;;7.00;99.90;;;;;;5079766;28;20052;-62
2021/12/01 04:44:12;;;;;;;0.43;0.43;;;7.00;99.90;;;;;;5074466;28;20039;-62
2021/12/01 04:46:46;;;;;;;0.47;0.47;;;7.10;99.90;;;;;;5074827;28;20044;-62
2021/12/01 04:49:16;;;;;;;1.23;0.50;;;7.10;99.90;;;;;;5073983;28;20039;-63
2021/12/01 04:51:44;;;;;;;1.42;0.68;;;7.10;99.90;;;;;;5074432;28;20052;-62
2021/12/01 04:54:10;;;;;;;0.40;0.40;;;7.00;99.90;;;;;;5073672;28;20028;-63
2021/12/01 04:56:37;;;;;;;0.65;0.63;;;7.10;99.90;;;;;;5074328;28;20037;-62
2021/12/01 04:59:04;;;;;;;0.40;0.40;;;7.10;99.90;;;;;;5074608;28;20032;-64
2021/12/01 05:01:30;;;;;;;0.45;0.45;;;7.10;99.90;;;;;;5073948;28;20025;-63
2021/12/01 05:03:56;;;;;;;2.05;0.60;;;7.10;99.90;;;;;;5074090;28;20387;-62
2021/12/01 05:06:22;;;;;;;0.50;0.50;;;7.10;99.90;;;;;;5073582;28;20100;-62
2021/12/01 05:08:48;;;;;;;0.77;0.57;;;7.10;99.90;;;;;;5074171;28;20062;-63
2021/12/01 05:11:14;;;;;;;0.82;0.50;;;7.10;99.90;;;;;;5073311;28;20028;-63
2021/12/01 05:13:40;;;;;;;0.50;0.50;;;7.10;99.90;;;;;;5075500;28;20021;-63
2021/12/01 05:16:06;;;;;;;0.50;0.50;;;7.10;99.90;;;;;;5086373;28;20642;-63
2021/12/01 05:18:31;;;;;;;2.25;0.45;;;7.10;99.90;;;;;;5090558;28;20038;-63
2021/12/01 05:20:57;;;;;;;0.47;0.47;;;7.10;99.90;;;;;;5085388;28;20094;-63
2021/12/01 05:23:23;;;;;;;0.70;0.70;;;7.10;99.90;;;;;;5083211;28;20074;-62
2021/12/01 05:25:48;;;;;;;0.80;0.75;;;7.10;99.90;;;;;;5091650;28;20024;-62
2021/12/01 05:28:15;;;;;;;1.13;0.90;;;7.10;99.90;;;;;;5076770;28;20447;-62
2021/12/01 05:30:40;;;;;;;0.85;0.65;;;7.10;99.90;;;;;;5073782;28;20462;-63
2021/12/01 05:33:08;;;;;;;1.17;0.70;;;7.10;99.90;;;;;;5073613;28;20089;-62
2021/12/01 05:35:35;;;;;;;1.33;0.75;;;7.10;99.90;;;;;;5072340;28;20059;-62
2021/12/01 05:38:03;;;;;;;0.73;0.50;;;7.10;99.90;;;;;;5073567;28;20056;-62
2021/12/01 05:40:29;;;;;;;0.68;0.57;;;7.10;99.90;;;;;;5079325;28;20337;-63
2021/12/01 05:42:54;;;;;;;0.98;0.60;;;7.10;99.90;;;;;;5093631;28;20556;-62
2021/12/01 05:45:20;;;;;;;1.52;0.60;;;7.10;99.90;;;;;;5092999;28;20415;-62
2021/12/01 05:47:46;;;;;;;0.70;0.50;;;7.10;99.90;;;;;;5093510;28;20099;-62
2021/12/01 05:50:11;;;;;;;0.65;0.55;;;7.10;99.90;;;;;;5092688;28;20422;-62
2021/12/01 05:52:37;;;;;;;1.40;0.50;;;7.10;99.90;;;;;;5092991;28;20492;-62
2021/12/01 05:55:05;;;;;;;1.13;0.65;;;7.10;99.90;;;;;;5092789;28;20088;-61
2021/12/01 05:57:31;;;;;;;0.65;0.38;;;7.10;99.90;;;;;;5091324;28;20500;-62
2021/12/01 05:59:56;;;;;;;0.55;0.50;;;7.20;99.90;;;;;;5092624;28;20028;-62
2021/12/01 06:02:22;;;;;;;0.77;0.50;;;7.20;99.90;;;;;;5091658;28;20100;-62
2021/12/01 06:04:48;;;;;;;0.40;0.40;;;7.20;99.90;;;;;;5092519;28;20046;-62
2021/12/01 06:07:14;;;;;;;0.57;0.50;;;7.20;99.90;;;;;;5091914;28;20032;-62
2021/12/01 06:09:41;;;;;;;0.75;0.50;;;7.20;99.90;;;;;;5091829;28;20028;-62
2021/12/01 06:12:07;;;;;;;0.50;0.50;;;7.30;99.90;;;;;;5093050;28;20024;-62
2021/12/01 06:14:34;;;;;;;0.75;0.63;;;7.30;99.90;;;;;;5084591;28;20108;-64
2021/12/01 06:17:00;;;;;;;1.92;0.90;;;7.30;99.90;;;;;;5071037;28;20035;-62
2021/12/01 06:19:26;;;;;;;2.65;0.63;;;7.30;99.90;;;;;;5072021;28;20024;-63
2021/12/01 06:21:52;;;;;;;1.00;0.50;;;7.30;99.90;;;;;;5072697;28;20028;-62
2021/12/01 06:24:17;;;;;;;1.13;0.80;;;7.30;99.90;;;;;;5071953;28;20036;-63
2021/12/01 06:26:43;;;;;;;0.50;0.50;;;7.40;99.90;;;;;;5072643;28;20032;-63
2021/12/01 06:29:09;;;;;;;1.58;0.70;;;7.40;99.90;;;;;;5072198;28;20020;-64
2021/12/01 06:31:35;;;;;;;1.20;0.82;;;7.40;99.90;;;;;;5071452;28;20028;-62
2021/12/01 06:34:00;;;;;;;0.50;0.50;;;7.40;99.90;;;;;;5072541;28;20358;-62
2021/12/01 06:36:26;;;;;;;0.75;0.50;;;7.40;99.90;;;;;;5071807;28;20033;-63
2021/12/01 06:38:52;;;;;;;1.85;0.50;;;7.50;99.90;;;;;;5072435;28;20031;-62
2021/12/01 06:41:18;;;;;;;0.50;0.50;;;7.50;99.90;;;;;;5071871;28;20024;-62
2021/12/01 06:43:44;;;;;;;0.50;0.50;;;7.50;99.90;;;;;;5072663;28;20062;-63
2021/12/01 06:46:09;;;;;;;0.80;0.80;;;7.50;99.90;;;;;;5071935;28;20051;-63
2021/12/01 06:48:35;;;;;;;0.60;0.60;;;7.50;99.90;;;;;;5071396;28;20051;-63
2021/12/01 06:51:01;;;;;;;0.88;0.60;;;7.60;99.90;;;;;;5072220;28;20031;-62
2021/12/01 06:53:27;;;;;;;0.65;0.50;;;7.60;99.90;;;;;;5071454;28;20153;-62
2021/12/01 06:55:53;;;;;;;0.50;0.50;;;7.60;99.90;;;;;;5072284;28;20079;-62
2021/12/01 06:58:20;;;;;;;1.10;0.70;;;7.60;99.90;;;;;;5071473;28;20074;-62
2021/12/01 07:00:45;;;;;;;1.05;0.57;;;7.70;99.90;;;;;;5072101;28;20103;-63
2021/12/01 07:03:11;;;;;;;0.82;0.60;;;7.70;99.90;;;;;;5072099;28;20064;-63
2021/12/01 07:05:37;;;;;;;0.77;0.77;;;7.70;99.90;;;;;;5071425;28;20365;-63
2021/12/01 07:08:04;;;;;;;0.75;0.65;;;7.70;99.90;;;;;;5071976;28;20476;-63
2021/12/01 07:10:29;;;;;;;0.90;0.50;;;7.80;99.90;;;;;;5071484;28;20033;-63
2021/12/01 07:12:55;;;;;;;2.40;0.60;;;7.80;99.90;;;;;;5071461;28;20342;-64
2021/12/01 07:15:21;;;;;;;0.80;0.60;;;7.80;99.90;;;;;;5070424;28;20024;-63
2021/12/01 07:17:47;;;;;;;0.70;0.70;;;7.80;99.90;;;;;;5071815;28;20021;-62
2021/12/01 07:20:14;;;;;;;2.42;0.60;;;7.80;99.90;;;;;;5071937;28;20021;-62
2021/12/01 07:22:41;;;;;;;0.98;0.70;;;7.90;99.90;;;;;;5071248;28;20028;-62
2021/12/01 07:25:07;;;;;;;0.70;0.50;;;7.90;99.90;;;;;;5071920;28;20029;-62
2021/12/01 07:27:33;;;;;;;1.05;0.50;;;7.90;99.90;;;;;;5071086;28;20032;-62
2021/12/01 07:29:59;;;;;;;4.35;0.77;;;7.90;99.90;;;;;;5071944;28;20025;-62
2021/12/01 07:32:25;;;;;;;0.70;0.70;;;8.00;99.90;;;;;;5070689;28;20462;-63
2021/12/01 07:34:50;;;;;;;0.75;0.70;;;8.00;99.90;;;;;;5080066;28;20093;-63
2021/12/01 07:37:18;;;;;;;2.53;0.60;;;8.00;99.90;;;;;;5092019;28;20028;-62
2021/12/01 07:39:45;;;;;;;0.52;0.52;;;8.00;99.90;;;;;;5091578;28;20020;-62
2021/12/01 07:42:14;;;;;;;0.52;0.52;;;8.00;99.90;;;;;;5092059;28;20406;-62
2021/12/01 07:44:40;;;;;;;1.60;0.90;;;8.00;99.90;;;;;;5091275;28;20075;-62
2021/12/01 07:47:06;;;;;;;1.15;0.70;;;8.00;99.90;;;;;;5092030;28;20059;-62
2021/12/01 07:49:32;;;;;;;0.75;0.73;;;7.90;99.90;;;;;;5089859;28;20526;-62
2021/12/01 07:51:58;;;;;;;1.00;0.90;;;7.90;99.90;;;;;;5091847;28;20031;-62
2021/12/01 07:54:23;;;;;;;1.77;1.40;;;7.90;99.90;;;;;;5091117;28;20036;-62
2021/12/01 07:56:49;;;;;;;3.60;1.50;;;7.90;99.90;;;;;;5091816;28;20380;-63
2021/12/01 07:59:15;;;;;;;2.03;1.10;;;7.90;99.90;;;;;;5091486;28;20024;-63
2021/12/01 08:01:45;;;;;;;1.75;1.00;;;7.90;99.90;;;;;;5091073;28;20032;-62
2021/12/01 08:04:11;;;;;;;1.92;0.95;;;8.00;99.90;;;;;;5091736;28;20066;-64
2021/12/01 08:06:38;;;;;;;1.45;1.10;;;8.00;99.90;;;;;;5091082;28;20077;-62
2021/12/01 08:09:04;;;;;;;2.17;1.15;;;8.00;99.90;;;;;;5091560;28;20043;-62
2021/12/01 08:11:30;;;;;;;1.48;0.98;;;8.00;99.90;;;;;;5087535;28;20024;-62
2021/12/01 08:13:56;;;;;;;2.35;0.93;;;8.00;99.90;;;;;;5091624;28;20177;-62
2021/12/01 08:16:22;;;;;;;3.10;1.10;;;8.10;99.90;;;;;;5091244;28;20024;-62
2021/12/01 08:18:51;;;;;;;0.90;0.68;;;8.10;99.90;;;;;;5091500;28;20024;-62
2021/12/01 08:21:23;;;;;;;2.47;1.00;;;8.10;99.90;;;;;;5091239;28;20484;-62
2021/12/01 08:23:53;;;;;;;1.85;1.20;;;8.10;99.90;;;;;;5091671;28;20047;-62
2021/12/01 08:26:19;;;;;;;1.48;0.75;;;8.20;99.90;;;;;;5094516;28;20024;-62
2021/12/01 08:28:46;;;;;;;1.67;1.10;;;8.20;99.90;;;;;;5094637;28;20032;-62
2021/12/01 08:31:13;;;;;;;2.30;0.90;;;8.20;99.90;;;;;;5095151;28;20090;-62
2021/12/01 08:33:40;;;;;;;1.60;0.95;;;8.30;99.90;;;;;;5094434;28;20108;-62
2021/12/01 08:36:06;;;;;;;1.75;0.90;;;8.30;99.90;;;;;;5095211;28;20039;-62
2021/12/01 08:38:31;;;;;;;0.88;0.85;;;8.30;99.90;;;;;;5093245;28;20032;-62
2021/12/01 08:40:58;;;;;;;1.75;1.08;;;8.40;99.90;;;;;;5094832;28;20028;-62
2021/12/01 08:43:24;;;;;;;1.35;0.90;;;8.40;99.90;;;;;;5094604;28;20114;-63
2021/12/01 08:45:49;;;;;;;2.65;1.00;;;8.40;99.90;;;;;;5095134;28;20441;-62
2021/12/01 08:48:15;;;;;;;1.75;0.73;;;8.50;99.90;;;;;;5094904;28;20178;-62
2021/12/01 08:50:41;;;;;;;2.45;0.95;;;8.50;99.90;;;;;;5093951;28;20016;-63
2021/12/01 08:53:07;;;;;;;1.77;1.25;;;8.50;99.90;;;;;;5094416;28;20097;-63
2021/12/01 08:55:32;;;;;;;1.27;0.85;;;8.50;99.90;;;;;;5094231;28;20028;-62
2021/12/01 08:57:58;;;;;;;2.45;1.35;;;8.50;99.90;;;;;;5094491;28;20028;-62
2021/12/01 09:00:24;;;;;;;2.40;1.30;;;8.50;99.90;;;;;;5094775;28;20472;-61
2021/12/01 09:02:49;;;;;;;1.75;1.10;;;8.50;99.90;;;;;;5094317;28;20038;-63
2021/12/01 09:05:15;;;;;;;3.10;1.10;;;8.50;99.90;;;;;;5094647;28;20055;-62
2021/12/01 09:07:41;;;;;;;1.02;0.77;;;8.50;99.90;;;;;;5093968;28;20028;-62
2021/12/01 09:10:07;;;;;;;3.25;0.82;;;8.60;99.90;;;;;;5094396;28;20389;-62
2021/12/01 09:12:34;;;;;;;1.48;0.90;;;8.50;99.90;;;;;;5093533;28;20020;-63
2021/12/01 09:14:59;;;;;;;0.80;0.70;;;8.60;99.90;;;;;;5093133;28;20102;-63
2021/12/01 09:17:25;;;;;;;2.25;1.00;;;8.50;99.90;;;;;;5092815;28;20032;-63
2021/12/01 09:19:52;;;;;;;2.15;0.85;;;8.60;99.90;;;;;;5093859;28;20102;-63
2021/12/01 09:22:19;;;;;;;2.80;1.40;;;8.60;99.90;;;;;;5094254;28;20031;-62
2021/12/01 09:24:46;;;;;;;4.28;1.38;;;8.60;99.90;;;;;;5093600;28;20063;-61
2021/12/01 09:27:12;;;;;;;2.90;1.13;;;8.60;99.90;;;;;;5094202;28;20034;-62
2021/12/01 09:29:38;;;;;;;2.90;1.25;;;8.60;99.90;;;;;;5093520;28;20020;-62
2021/12/01 09:32:04;;;;;;;1.67;1.40;;;8.60;99.90;;;;;;5094154;28;20024;-62
2021/12/01 09:34:30;;;;;;;1.38;1.00;;;8.60;99.90;;;;;;5091722;28;20036;-61
2021/12/01 09:36:56;;;;;;;0.70;0.70;;;8.60;99.90;;;;;;5074538;28;20024;-62
2021/12/01 09:39:23;;;;;;;2.70;0.90;;;8.60;99.90;;;;;;5073915;28;20054;-62
2021/12/01 09:41:49;;;;;;;0.98;0.50;;;8.60;99.90;;;;;;5072744;28;20449;-62
2021/12/01 09:44:15;;;;;;;1.55;0.65;;;8.60;99.90;;;;;;5073444;28;20060;-62
2021/12/01 09:46:41;;;;;;;4.22;1.15;;;8.60;99.90;;;;;;5073057;28;20067;-62
2021/12/01 09:49:06;;;;;;;2.47;0.70;;;8.60;99.90;;;;;;5073688;28;20028;-62
2021/12/01 09:51:33;;;;;;;2.03;0.80;;;8.50;99.90;;;;;;5072757;28;20036;-62
2021/12/01 09:54:00;;;;;;;3.65;0.85;;;8.50;99.90;;;;;;5073456;28;20087;-61
2021/12/01 09:56:26;;;;;;;2.15;1.02;;;8.50;99.90;;;;;;5073391;28;20039;-62
2021/12/01 09:58:52;;;;;;;1.85;1.33;;;8.50;99.90;;;;;;5072714;28;20025;-61
2021/12/01 10:01:21;;;;;;;3.35;1.30;;;8.50;99.90;;;;;;5073385;28;20381;-63
2021/12/01 10:03:47;;;;;;;3.00;1.00;;;8.50;99.90;;;;;;5072814;28;20438;-63
2021/12/01 10:06:22;;;;;;;1.50;0.95;;;8.50;99.90;;;;;;5073754;28;20025;-63
2021/12/01 10:08:57;;;;;;;8.27;1.00;;;8.50;99.90;;;;;;5073124;28;20415;-63
2021/12/01 10:11:31;;;;;;;4.97;0.98;;;8.50;99.90;;;;;;5073263;28;20078;-63
2021/12/01 10:14:00;;;;;;;3.75;1.10;;;8.50;99.90;;;;;;5072920;28;20066;-62
2021/12/01 10:16:34;;;;;;;2.63;1.23;;;8.50;99.90;;;;;;5072763;28;20035;-63
2021/12/01 10:19:06;;;;;;;1.35;1.00;;;8.40;99.90;;;;;;5073083;28;20047;-63
2021/12/01 10:21:36;;;;;;;3.42;1.40;;;8.40;99.90;;;;;;5072540;28;20104;-63
2021/12/01 10:24:11;;;;;;;1.45;1.00;;;8.40;99.90;;;;;;5072663;28;20477;-63
2021/12/01 10:26:43;;;;;;;2.00;1.20;;;8.40;99.90;;;;;;5072489;28;20487;-63
2021/12/01 10:29:12;;;;;;;4.00;1.48;;;8.50;99.90;;;;;;5072906;28;20032;-63
2021/12/01 10:31:46;;;;;;;3.78;1.25;;;8.50;99.90;;;;;;5072149;28;20454;-63
2021/12/01 10:34:20;;;;;;;3.33;1.23;;;8.50;99.90;;;;;;5072427;28;20563;-63
2021/12/01 10:36:51;;;;;;;4.00;1.40;;;8.50;99.90;;;;;;5072151;28;20025;-61
2021/12/01 10:39:17;;;;;;;3.15;1.60;;;8.50;99.90;;;;;;5072615;28;20059;-62
2021/12/01 10:41:43;;;;;;;5.70;1.60;;;8.50;99.90;;;;;;5071974;28;20060;-62
2021/12/01 10:44:18;;;;;;;2.75;1.75;;;8.50;99.90;;;;;;5072470;28;20110;-63
2021/12/01 10:46:48;;;;;;;1.73;1.25;;;8.60;99.90;;;;;;5072081;28;20105;-63
2021/12/01 10:49:15;;;;;;;2.15;1.42;;;8.60;99.90;;;;;;5072421;28;20028;-62
2021/12/01 10:51:43;;;;;;;2.38;1.50;;;8.60;99.90;;;;;;5071728;28;20058;-62
2021/12/01 10:54:18;;;;;;;3.38;1.65;;;8.60;99.90;;;;;;5072350;28;20029;-63
2021/12/01 10:56:45;;;;;;;2.15;1.73;;;8.70;99.90;;;;;;5071730;28;20067;-63
2021/12/01 10:59:16;;;;;;;4.53;2.40;;;8.70;99.90;;;;;;5072224;28;20071;-63
2021/12/01 11:01:43;;;;;;;2.95;1.85;;;8.70;99.90;;;;;;5071617;28;20029;-63
2021/12/01 11:04:27;;;;;;;4.53;1.60;;;8.80;99.90;;;;;;5072517;28;20118;-62
2021/12/01 11:06:53;;;;;;;4.00;2.95;;;8.80;99.90;;;;;;5071322;28;20032;-62
2021/12/01 11:09:21;;;;;;;2.10;1.40;;;8.80;99.90;;;;;;5072363;28;20415;-63
2021/12/01 11:11:51;;;;;;;3.50;1.98;;;8.80;99.90;;;;;;5071720;28;20032;-61
2021/12/01 11:14:19;;;;;;;3.90;1.45;;;8.80;99.90;;;;;;5072481;28;20444;-63
2021/12/01 11:16:45;;;;;;;2.45;1.48;;;8.80;99.90;;;;;;5071391;28;20049;-62
2021/12/01 11:19:12;;;;;;;2.70;1.25;;;8.80;99.90;;;;;;5071874;28;20027;-63
2021/12/01 11:21:57;;;;;;;2.50;1.35;;;8.90;99.90;;;;;;5071487;28;20105;-63
2021/12/01 11:24:23;;;;;;;4.00;2.00;;;8.90;99.90;;;;;;5072051;28;20036;-63
2021/12/01 11:26:48;;;;;;;5.28;1.40;;;9.00;99.90;;;;;;5070215;28;20453;-63
2021/12/01 11:29:15;;;;;;;2.85;1.30;;;9.00;99.90;;;;;;5071939;28;20021;-63
2021/12/01 11:31:43;;;;;;;1.20;1.08;;;9.10;99.90;;;;;;5071033;28;20380;-63
2021/12/01 11:34:15;;;;;;;4.10;1.38;;;9.00;99.90;;;;;;5072029;28;20086;-62
2021/12/01 11:36:51;;;;;;;2.67;1.10;;;9.10;99.90;;;;;;5071078;28;20032;-63
2021/12/01 11:39:25;;;;;;;1.83;1.08;;;9.10;99.90;;;;;;5071825;28;20472;-62
2021/12/01 11:41:52;;;;;;;3.05;1.10;;;9.10;99.90;;;;;;5086814;28;20472;-62
2021/12/01 11:44:19;;;;;;;3.03;1.38;;;9.00;99.90;;;;;;5091629;28;20473;-63
2021/12/01 11:46:47;;;;;;;3.83;2.70;;;9.10;99.90;;;;;;5091540;28;20044;-62
2021/12/01 11:49:16;;;;;;;2.78;1.73;;;9.00;99.50;;;;;;5091976;28;20020;-61
2021/12/01 11:52:08;;;;;;;2.35;1.10;;;8.90;99.20;;;;;;5091308;28;20460;-63
2021/12/01 11:54:42;;;;;;;1.23;1.00;;;8.90;99.20;;;;;;5091655;28;20032;-63
2021/12/01 11:57:09;;;;;;;2.42;1.17;;;8.80;99.00;;;;;;5091567;28;20063;-63
2021/12/01 11:59:43;;;;;;;1.55;1.15;;;8.70;99.00;;;;;;5091791;28;20461;-62
2021/12/01 12:02:18;;;;;;;1.58;1.15;;;8.70;99.10;;;;;;5095746;28;20021;-62
2021/12/01 12:04:48;;;;;;;2.10;1.30;;;8.60;99.40;;;;;;5095037;28;20467;-63
2021/12/01 12:07:26;;;;;;;4.38;1.55;;;8.60;99.50;;;;;;5095637;28;20031;-62
2021/12/01 12:10:21;;;;;;;2.10;1.23;;;8.60;99.60;;;;;;5094939;28;20048;-62
2021/12/01 12:13:03;;;;;;;3.42;1.90;;;8.60;99.90;;;;;;5093728;28;20020;-63
2021/12/01 12:15:38;;;;;;;3.72;1.55;;;8.60;99.90;;;;;;5075425;28;20037;-62
2021/12/01 12:18:05;;;;;;;2.90;1.40;;;8.60;99.90;;;;;;5074639;28;20458;-63
2021/12/01 12:20:39;;;;;;;2.47;1.50;;;8.60;99.50;;;;;;5073726;28;20078;-63
2021/12/01 12:23:09;;;;;;;2.30;1.35;;;8.60;99.50;;;;;;5074694;28;20449;-62
2021/12/01 12:25:45;;;;;;;2.35;1.40;;;8.60;99.70;;;;;;5075189;28;20024;-62
2021/12/01 12:28:26;;;;;;;3.20;1.23;;;8.60;99.60;;;;;;5075133;28;20032;-62
2021/12/01 12:30:53;;;;;;;3.30;1.37;;;8.60;99.60;;;;;;5073168;28;20380;-63
2021/12/01 12:33:26;;;;;;;2.17;1.27;;;8.60;99.70;;;;;;5074687;28;20273;-62
2021/12/01 12:36:05;;;;;;;3.55;1.60;;;8.60;99.70;;;;;;5072964;28;20035;-63
2021/12/01 12:38:31;;;;;;;3.25;1.40;;;8.60;99.70;;;;;;5074934;28;20017;-63
2021/12/01 12:41:10;;;;;;;4.57;1.35;;;8.60;99.80;;;;;;5073952;28;20111;-63
2021/12/01 12:43:37;;;;;;;1.77;1.42;;;8.60;99.80;;;;;;5075014;28;20032;-63
2021/12/01 12:46:16;;;;;;;2.55;1.50;;;8.60;99.80;;;;;;5073802;28;20060;-63
2021/12/01 12:48:49;;;;;;;2.03;1.42;;;8.60;99.60;;;;;;5074810;28;20025;-63
2021/12/01 12:51:34;;;;;;;2.20;1.30;;;8.60;99.60;;;;;;5074637;28;20028;-63
2021/12/01 12:54:04;;;;;;;2.47;1.23;;;8.60;99.70;;;;;;5073856;28;20032;-62
2021/12/01 12:56:33;;;;;;;4.88;1.58;;;8.60;99.80;;;;;;5074713;28;20036;-62
2021/12/01 12:59:33;;;;;;;2.83;1.50;;;8.60;99.90;;;;;;5073807;28;20078;-63
2021/12/01 13:02:07;;;;;;;3.53;1.70;;;8.70;99.90;;;;;;5073872;28;20025;-63
2021/12/01 13:04:49;;;;;;;4.65;1.80;;;8.80;99.90;;;;;;5074364;28;20118;-62
2021/12/01 13:07:35;;;;;;;2.85;2.05;;;8.90;99.90;;;;;;5074139;28;20042;-62